createdAt,value
2019-02-03T00:01:49.868Z,4.70
2019-02-03T00:04:21.767Z,4.70
2019-02-03T00:07:02.705Z,4.70
2019-02-03T00:09:22.381Z,4.70
2019-02-03T00:11:51.437Z,4.70
2019-02-03T00:14:20.443Z,4.70
2019-02-03T00:16:49.471Z,4.70
2019-02-03T00:19:18.520Z,4.70
2019-02-03T00:21:47.484Z,4.70
2019-02-03T00:24:16.494Z,4.70
2019-02-03T00:26:45.516Z,4.60
2019-02-03T00:29:14.612Z,4.60
2019-02-03T00:31:44.240Z,4.60
2019-02-03T00:34:13.263Z,4.60
2019-02-03T00:36:42.288Z,4.60
2019-02-03T00:39:11.369Z,4.60
2019-02-03T00:41:40.457Z,4.60
2019-02-03T00:44:09.519Z,4.50
2019-02-03T00:46:38.565Z,4.60
2019-02-03T00:49:07.598Z,4.60
2019-02-03T00:51:36.600Z,4.60
2019-02-03T00:54:06.392Z,4.60
2019-02-03T00:56:35.424Z,4.60
2019-02-03T00:59:14.192Z,4.60
2019-02-03T01:01:43.233Z,4.60
2019-02-03T01:04:12.270Z,4.60
2019-02-03T01:07:00.471Z,4.60
2019-02-03T01:09:29.487Z,4.60
2019-02-03T01:11:58.509Z,4.60
2019-02-03T01:14:27.491Z,4.60
2019-02-03T01:16:56.476Z,4.60
2019-02-03T01:19:25.511Z,4.60
2019-02-03T01:21:55.023Z,4.60
2019-02-03T01:24:24.162Z,4.60
2019-02-03T01:27:12.266Z,4.60
2019-02-03T01:29:41.133Z,4.60
2019-02-03T01:32:10.839Z,4.50
2019-02-03T01:34:39.809Z,4.50
2019-02-03T01:37:08.852Z,4.50
2019-02-03T01:39:37.868Z,4.50
2019-02-03T01:42:06.937Z,4.50
2019-02-03T01:44:35.942Z,4.50
2019-02-03T01:47:04.964Z,4.40
2019-02-03T01:49:33.984Z,4.40
2019-02-03T01:52:03.001Z,4.40
2019-02-03T01:54:32.044Z,4.40
2019-02-03T01:57:01.072Z,4.30
2019-02-03T01:59:30.676Z,4.40
2019-02-03T02:01:59.687Z,4.40
2019-02-03T02:04:28.740Z,4.40
2019-02-03T02:06:57.684Z,4.40
2019-02-03T02:09:32.145Z,4.40
2019-02-03T02:12:01.147Z,4.40
2019-02-03T02:14:30.149Z,4.40
2019-02-03T02:16:59.193Z,4.40
2019-02-03T02:19:31.384Z,4.40
2019-02-03T02:22:00.388Z,4.40
2019-02-03T02:24:29.400Z,4.40
2019-02-03T02:26:58.923Z,4.30
2019-02-03T02:29:47.067Z,4.30
2019-02-03T02:32:16.039Z,4.30
2019-02-03T02:34:45.078Z,4.30
2019-02-03T02:37:14.865Z,4.30
2019-02-03T02:39:43.797Z,4.40
2019-02-03T02:42:12.877Z,4.40
2019-02-03T02:44:41.932Z,4.30
2019-02-03T02:47:11.015Z,4.40
2019-02-03T02:49:42.937Z,4.30
2019-02-03T02:52:11.994Z,4.30
2019-02-03T02:54:40.956Z,4.20
2019-02-03T02:57:10.014Z,4.30
2019-02-03T02:59:39.000Z,4.30
2019-02-03T03:02:08.022Z,4.30
2019-02-03T03:04:46.078Z,4.30
2019-02-03T03:07:15.129Z,4.30
2019-02-03T03:09:44.097Z,4.30
2019-02-03T03:12:13.148Z,4.30
2019-02-03T03:14:42.180Z,4.20
2019-02-03T03:17:11.614Z,4.20
2019-02-03T03:19:40.577Z,4.20
2019-02-03T03:22:09.592Z,4.20
2019-02-03T03:24:38.469Z,4.00
2019-02-03T03:27:07.496Z,4.10
2019-02-03T03:29:55.622Z,4.10
2019-02-03T03:32:24.610Z,4.10
2019-02-03T03:34:53.710Z,4.10
2019-02-03T03:37:22.713Z,4.10
2019-02-03T03:39:51.747Z,4.00
2019-02-03T03:42:20.972Z,4.00
2019-02-03T03:44:50.001Z,4.00
2019-02-03T03:47:19.035Z,4.00
2019-02-03T03:49:48.053Z,4.00
2019-02-03T03:52:20.006Z,4.00
2019-02-03T03:54:49.318Z,3.80
2019-02-03T03:57:18.355Z,3.80
2019-02-03T03:59:47.436Z,3.70
2019-02-03T04:02:16.505Z,3.70
2019-02-03T04:04:45.501Z,3.70
2019-02-03T04:07:14.539Z,3.60
2019-02-03T04:09:46.750Z,3.60
2019-02-03T04:12:15.776Z,3.60
2019-02-03T04:14:44.677Z,3.50
2019-02-03T04:17:13.745Z,3.50
2019-02-03T04:19:42.841Z,3.40
2019-02-03T04:22:12.455Z,3.30
2019-02-03T04:24:41.434Z,3.30
2019-02-03T04:27:10.387Z,3.30
2019-02-03T04:29:39.433Z,3.20
2019-02-03T04:32:08.462Z,3.20
2019-02-03T04:34:37.492Z,3.20
2019-02-03T04:37:06.887Z,3.20
2019-02-03T04:39:35.912Z,3.10
2019-02-03T04:42:05.027Z,3.10
2019-02-03T04:44:34.089Z,3.00
2019-02-03T04:47:03.089Z,3.00
2019-02-03T04:49:32.098Z,3.00
2019-02-03T04:52:01.284Z,3.00
2019-02-03T04:54:49.442Z,3.00
2019-02-03T04:57:18.465Z,2.90
2019-02-03T04:59:47.510Z,2.80
2019-02-03T05:02:16.418Z,2.80
2019-02-03T05:04:45.424Z,2.80
2019-02-03T05:07:14.419Z,2.70
2019-02-03T05:09:43.437Z,2.60
2019-02-03T05:12:12.386Z,2.60
2019-02-03T05:14:41.289Z,2.60
2019-02-03T05:17:10.369Z,2.50
2019-02-03T05:19:39.266Z,2.50
2019-02-03T05:22:08.298Z,2.40
2019-02-03T05:24:37.357Z,2.40
2019-02-03T05:27:06.483Z,2.40
2019-02-03T05:29:54.891Z,2.30
2019-02-03T05:32:23.839Z,2.20
2019-02-03T05:34:52.701Z,2.20
2019-02-03T05:37:21.638Z,2.20
2019-02-03T05:39:51.070Z,2.20
2019-02-03T05:42:19.944Z,2.30
2019-02-03T05:44:48.924Z,2.30
2019-02-03T05:47:17.940Z,2.30
2019-02-03T05:49:46.851Z,2.30
2019-02-03T05:52:15.888Z,2.20
2019-02-03T05:54:45.411Z,2.20
2019-02-03T05:57:14.435Z,2.10
2019-02-03T05:59:43.440Z,2.10
2019-02-03T06:02:12.403Z,2.10
2019-02-03T06:04:41.446Z,2.00
2019-02-03T06:07:10.492Z,2.00
2019-02-03T06:09:39.484Z,2.00
2019-02-03T06:12:08.532Z,1.90
2019-02-03T06:14:37.547Z,1.90
2019-02-03T06:17:06.555Z,1.90
2019-02-03T06:19:35.497Z,1.80
2019-02-03T06:22:04.722Z,1.80
2019-02-03T06:24:33.700Z,1.80
2019-02-03T06:27:02.685Z,1.90
2019-02-03T06:29:31.762Z,1.90
2019-02-03T06:32:00.706Z,1.80
2019-02-03T06:34:29.728Z,1.90
2019-02-03T06:36:59.151Z,1.90
2019-02-03T06:39:28.177Z,1.90
2019-02-03T06:42:16.296Z,1.90
2019-02-03T06:44:45.315Z,1.90
2019-02-03T06:47:33.008Z,1.80
2019-02-03T06:50:01.903Z,1.80
2019-02-03T06:52:30.919Z,1.80
2019-02-03T06:54:59.910Z,1.80
2019-02-03T06:57:29.315Z,1.80
2019-02-03T06:59:58.245Z,1.70
2019-02-03T07:02:27.310Z,1.70
2019-02-03T07:04:56.205Z,1.70
2019-02-03T07:07:44.485Z,1.70
2019-02-03T07:10:13.783Z,1.70
2019-02-03T07:12:42.742Z,1.60
2019-02-03T07:15:12.100Z,1.60
2019-02-03T07:17:41.058Z,1.70
2019-02-03T07:20:10.456Z,1.70
2019-02-03T07:22:39.745Z,1.70
2019-02-03T07:25:27.870Z,1.70
2019-02-03T07:27:56.737Z,1.80
2019-02-03T07:30:25.832Z,1.90
2019-02-03T07:32:55.456Z,1.90
2019-02-03T07:35:24.436Z,1.90
2019-02-03T07:37:53.437Z,2.00
2019-02-03T07:40:22.556Z,2.00
2019-02-03T07:42:51.602Z,2.00
2019-02-03T07:45:20.622Z,2.00
2019-02-03T07:47:49.500Z,2.00
2019-02-03T07:50:18.511Z,2.00
2019-02-03T07:52:47.540Z,1.90
2019-02-03T07:55:16.857Z,1.90
2019-02-03T07:57:45.932Z,1.80
2019-02-03T08:00:34.033Z,1.80
2019-02-03T08:03:03.047Z,1.80
2019-02-03T08:05:32.056Z,1.80
2019-02-03T08:08:01.087Z,1.90
2019-02-03T08:10:30.096Z,1.90
2019-02-03T08:12:59.431Z,1.90
2019-02-03T08:15:28.436Z,1.90
2019-02-03T08:17:57.424Z,1.90
2019-02-03T08:20:26.720Z,1.90
2019-02-03T08:22:55.724Z,2.00
2019-02-03T08:25:24.782Z,1.90
2019-02-03T08:27:53.751Z,2.00
2019-02-03T08:30:23.311Z,2.00
2019-02-03T08:32:52.338Z,2.00
2019-02-03T08:35:21.366Z,2.00
2019-02-03T08:37:50.380Z,2.00
2019-02-03T08:40:21.440Z,2.10
2019-02-03T08:42:50.772Z,2.10
2019-02-03T08:45:20.343Z,2.10
2019-02-03T08:47:49.638Z,2.10
2019-02-03T08:50:19.765Z,2.10
2019-02-03T08:52:51.309Z,2.20
2019-02-03T08:55:20.077Z,2.20
2019-02-03T08:57:49.094Z,2.20
2019-02-03T09:00:20.278Z,2.20
2019-02-03T09:02:50.029Z,2.20
2019-02-03T09:05:19.383Z,2.20
2019-02-03T09:07:48.961Z,2.30
2019-02-03T09:10:19.828Z,2.30
2019-02-03T09:12:48.889Z,2.30
2019-02-03T09:15:20.634Z,2.30
2019-02-03T09:17:49.711Z,2.30
2019-02-03T09:20:27.351Z,2.30
2019-02-03T09:22:56.392Z,2.30
2019-02-03T09:25:25.484Z,2.30
2019-02-03T09:27:54.500Z,2.30
2019-02-03T09:30:28.669Z,2.30
2019-02-03T09:32:57.978Z,2.30
2019-02-03T09:35:27.321Z,2.30
2019-02-03T09:37:56.319Z,2.40
2019-02-03T09:40:27.287Z,2.40
2019-02-03T09:42:56.296Z,2.40
2019-02-03T09:45:26.019Z,2.40
2019-02-03T09:47:55.324Z,2.50
2019-02-03T09:50:26.136Z,2.50
2019-02-03T09:52:57.349Z,2.40
2019-02-03T09:55:26.374Z,2.30
2019-02-03T09:57:56.041Z,2.40
2019-02-03T10:00:27.641Z,2.50
2019-02-03T10:02:58.073Z,2.40
2019-02-03T10:05:27.078Z,2.40
2019-02-03T10:07:56.519Z,2.40
2019-02-03T10:10:27.836Z,2.40
2019-02-03T10:12:57.322Z,2.40
2019-02-03T10:15:26.545Z,2.40
2019-02-03T10:17:55.544Z,2.40
2019-02-03T10:20:25.120Z,2.30
2019-02-03T10:22:54.136Z,2.30
2019-02-03T10:25:24.548Z,2.30
2019-02-03T10:27:53.989Z,2.40
2019-02-03T10:30:24.141Z,2.30
2019-02-03T10:32:53.555Z,2.30
2019-02-03T10:35:24.204Z,2.50
2019-02-03T10:37:53.324Z,2.50
2019-02-03T10:40:24.655Z,2.50
2019-02-03T10:42:54.668Z,2.60
2019-02-03T10:45:24.596Z,2.70
2019-02-03T10:47:54.069Z,2.60
2019-02-03T10:50:26.906Z,2.70
2019-02-03T10:52:56.012Z,2.70
2019-02-03T10:55:25.716Z,2.60
2019-02-03T10:57:55.047Z,2.40
2019-02-03T11:00:26.477Z,2.40
2019-02-03T11:02:55.516Z,2.40
2019-02-03T11:05:27.476Z,2.50
2019-02-03T11:07:57.067Z,2.40
2019-02-03T11:10:26.719Z,2.30
2019-02-03T11:12:56.151Z,2.30
2019-02-03T11:15:25.980Z,2.20
2019-02-03T11:17:54.987Z,2.10
2019-02-03T11:20:26.440Z,2.10
2019-02-03T11:22:56.169Z,2.20
2019-02-03T11:25:26.325Z,2.20
2019-02-03T11:27:55.584Z,2.30
2019-02-03T11:30:26.117Z,2.30
2019-02-03T11:33:05.114Z,2.30
2019-02-03T11:35:26.967Z,2.10
2019-02-03T11:37:56.284Z,2.10
2019-02-03T11:40:27.437Z,2.10
2019-02-03T11:42:56.829Z,2.10
2019-02-03T11:45:32.307Z,2.10
2019-02-03T11:48:01.319Z,2.00
2019-02-03T11:50:35.664Z,1.90
2019-02-03T11:53:06.133Z,1.90
2019-02-03T11:55:35.158Z,1.90
2019-02-03T11:58:04.693Z,1.90
2019-02-03T12:00:34.300Z,1.90
2019-02-03T12:03:04.535Z,1.80
2019-02-03T12:05:33.548Z,1.70
2019-02-03T12:08:02.485Z,1.70
2019-02-03T12:10:32.123Z,1.70
2019-02-03T12:13:01.741Z,1.70
2019-02-03T12:15:30.757Z,1.70
2019-02-03T12:17:59.788Z,1.80
2019-02-03T12:20:28.804Z,1.80
2019-02-03T12:22:57.827Z,1.90
2019-02-03T12:25:28.848Z,1.90
2019-02-03T12:27:58.180Z,1.90
2019-02-03T12:30:29.924Z,1.90
2019-02-03T12:32:59.424Z,1.90
2019-02-03T12:35:28.512Z,1.80
2019-02-03T12:37:58.190Z,1.80
2019-02-03T12:40:29.532Z,1.70
2019-02-03T12:42:58.556Z,1.50
2019-02-03T12:45:28.205Z,1.50
2019-02-03T12:47:57.228Z,1.60
2019-02-03T12:50:26.424Z,1.80
2019-02-03T12:52:55.740Z,1.90
2019-02-03T12:55:27.535Z,2.00
2019-02-03T12:57:56.556Z,2.00
2019-02-03T13:00:28.028Z,2.10
2019-02-03T13:02:57.021Z,2.00
2019-02-03T13:05:26.900Z,2.10
2019-02-03T13:07:56.568Z,2.20
2019-02-03T13:10:30.939Z,2.20
2019-02-03T13:13:00.959Z,2.30
2019-02-03T13:15:32.850Z,2.30
2019-02-03T13:18:01.880Z,2.30
2019-02-03T13:20:31.271Z,2.10
2019-02-03T13:23:00.604Z,2.00
2019-02-03T13:25:29.620Z,1.90
2019-02-03T13:27:58.628Z,1.90
2019-02-03T13:30:32.707Z,1.90
2019-02-03T13:33:01.781Z,1.90
2019-02-03T13:35:30.829Z,1.80
2019-02-03T13:37:59.884Z,1.70
2019-02-03T13:40:36.081Z,1.60
2019-02-03T13:43:06.081Z,1.50
2019-02-03T13:45:35.726Z,1.40
2019-02-03T13:48:06.088Z,1.30
2019-02-03T13:50:35.134Z,1.20
2019-02-03T13:53:04.460Z,1.20
2019-02-03T13:55:33.456Z,1.10
2019-02-03T13:58:02.527Z,1.10
2019-02-03T14:00:33.714Z,1.10
2019-02-03T14:03:02.725Z,1.00
2019-02-03T14:05:31.769Z,1.00
2019-02-03T14:08:01.202Z,1.00
2019-02-03T14:10:31.804Z,1.00
2019-02-03T14:13:01.377Z,1.00
2019-02-03T14:15:30.820Z,1.10
2019-02-03T14:18:00.075Z,1.20
2019-02-03T14:20:30.196Z,1.10
2019-02-03T14:22:59.480Z,1.20
2019-02-03T14:25:29.091Z,1.00
2019-02-03T14:27:58.292Z,1.00
2019-02-03T14:30:41.711Z,1.00
2019-02-03T14:33:11.223Z,1.10
2019-02-03T14:35:47.128Z,1.00
2019-02-03T14:38:16.145Z,1.00
2019-02-03T14:40:45.159Z,0.90
2019-02-03T14:43:14.079Z,0.90
2019-02-03T14:45:43.354Z,0.80
2019-02-03T14:48:12.353Z,0.80
2019-02-03T14:50:41.367Z,0.80
2019-02-03T14:53:15.179Z,0.70
2019-02-03T14:55:53.268Z,0.70
2019-02-03T14:58:24.306Z,0.70
2019-02-03T15:00:54.022Z,0.70
2019-02-03T15:03:24.444Z,0.70
2019-02-03T15:05:53.881Z,0.70
2019-02-03T15:08:22.959Z,0.70
2019-02-03T15:10:51.977Z,0.80
2019-02-03T15:13:21.014Z,0.80
2019-02-03T15:15:50.016Z,0.80
2019-02-03T15:18:19.042Z,0.70
2019-02-03T15:20:48.056Z,0.60
2019-02-03T15:23:17.076Z,0.60
2019-02-03T15:25:46.080Z,0.60
2019-02-03T15:28:16.420Z,0.60
2019-02-03T15:30:46.724Z,0.50
2019-02-03T15:33:15.715Z,0.50
2019-02-03T15:35:44.849Z,0.40
2019-02-03T15:38:13.880Z,0.40
2019-02-03T15:40:43.479Z,0.40
2019-02-03T15:43:24.481Z,0.40
2019-02-03T15:45:43.411Z,0.50
2019-02-03T15:48:12.425Z,0.40
2019-02-03T15:50:41.428Z,0.40
2019-02-03T15:53:10.516Z,0.40
2019-02-03T15:55:39.513Z,0.30
2019-02-03T15:58:10.092Z,0.30
2019-02-03T16:00:41.439Z,0.30
2019-02-03T16:03:11.611Z,0.30
2019-02-03T16:05:40.713Z,0.30
2019-02-03T16:08:29.284Z,0.30
2019-02-03T16:10:58.284Z,0.30
2019-02-03T16:13:36.755Z,0.40
2019-02-03T16:15:57.964Z,0.40
2019-02-03T16:18:27.268Z,0.40
2019-02-03T16:20:56.300Z,0.50
2019-02-03T16:23:25.324Z,0.50
2019-02-03T16:25:54.285Z,0.50
2019-02-03T16:28:23.198Z,0.50
2019-02-03T16:30:52.211Z,0.50
2019-02-03T16:33:21.207Z,0.40
2019-02-03T16:35:50.224Z,0.40
2019-02-03T16:38:22.927Z,0.40
2019-02-03T16:40:49.935Z,0.40
2019-02-03T16:43:19.428Z,0.30
2019-02-03T16:45:48.447Z,0.30
2019-02-03T16:48:17.455Z,0.20
2019-02-03T16:50:46.523Z,0.20
2019-02-03T16:53:15.505Z,0.20
2019-02-03T16:55:44.579Z,0.20
2019-02-03T16:58:13.903Z,0.20
2019-02-03T17:00:42.929Z,0.20
2019-02-03T17:03:11.920Z,0.30
2019-02-03T17:05:40.885Z,0.30
2019-02-03T17:08:09.956Z,0.30
2019-02-03T17:10:39.004Z,0.40
2019-02-03T17:13:08.096Z,0.40
2019-02-03T17:15:43.004Z,0.40
2019-02-03T17:18:12.563Z,0.40
2019-02-03T17:20:41.565Z,0.40
2019-02-03T17:23:10.614Z,0.40
2019-02-03T17:25:42.216Z,0.30
2019-02-03T17:28:11.276Z,0.30
2019-02-03T17:30:40.273Z,0.40
2019-02-03T17:33:09.603Z,0.30
2019-02-03T17:35:38.606Z,0.30
2019-02-03T17:38:07.610Z,0.20
2019-02-03T17:40:36.636Z,0.20
2019-02-03T17:43:25.404Z,0.20
2019-02-03T17:45:54.500Z,0.20
2019-02-03T17:48:23.512Z,0.20
2019-02-03T17:50:52.539Z,0.20
2019-02-03T17:53:21.540Z,0.20
2019-02-03T17:55:50.530Z,0.20
2019-02-03T17:58:19.549Z,0.20
2019-02-03T18:00:52.364Z,0.20
2019-02-03T18:03:21.390Z,0.20
2019-02-03T18:05:50.371Z,0.20
2019-02-03T18:08:19.961Z,0.20
2019-02-03T18:10:48.886Z,0.20
2019-02-03T18:13:17.886Z,0.20
2019-02-03T18:15:46.903Z,0.30
2019-02-03T18:18:15.908Z,0.30
2019-02-03T18:20:44.880Z,0.30
2019-02-03T18:23:13.804Z,0.30
2019-02-03T18:25:42.830Z,0.30
2019-02-03T18:28:30.899Z,0.20
2019-02-03T18:30:59.896Z,0.30
2019-02-03T18:33:28.906Z,0.20
2019-02-03T18:35:57.915Z,0.20
2019-02-03T18:38:26.856Z,0.20
2019-02-03T18:40:55.881Z,0.20
2019-02-03T18:43:24.887Z,0.20
2019-02-03T18:45:56.679Z,0.30
2019-02-03T18:48:26.665Z,0.40
2019-02-03T18:50:55.698Z,0.30
2019-02-03T18:53:24.638Z,0.30
2019-02-03T18:55:53.648Z,0.40
2019-02-03T18:58:22.674Z,0.30
2019-02-03T19:00:52.195Z,0.40
2019-02-03T19:03:21.268Z,0.40
2019-02-03T19:05:50.284Z,0.30
2019-02-03T19:08:19.215Z,0.30
2019-02-03T19:10:48.428Z,0.30
2019-02-03T19:13:18.789Z,0.40
2019-02-03T19:15:47.821Z,0.30
2019-02-03T19:18:16.817Z,0.30
2019-02-03T19:20:45.823Z,0.30
2019-02-03T19:23:14.874Z,0.40
2019-02-03T19:25:44.367Z,0.30
2019-02-03T19:28:13.557Z,0.30
2019-02-03T19:30:42.552Z,0.40
2019-02-03T19:33:11.545Z,0.30
2019-02-03T19:35:43.267Z,0.30
2019-02-03T19:38:12.308Z,0.40
2019-02-03T19:40:41.332Z,0.50
2019-02-03T19:43:10.773Z,0.40
2019-02-03T19:45:39.804Z,0.40
2019-02-03T19:48:08.902Z,0.50
2019-02-03T19:50:38.838Z,0.50
2019-02-03T19:53:08.828Z,0.50
2019-02-03T19:55:38.124Z,0.50
2019-02-03T19:58:07.782Z,0.50
2019-02-03T20:00:38.913Z,0.50
2019-02-03T20:03:08.492Z,0.50
2019-02-03T20:05:37.449Z,0.50
2019-02-03T20:08:07.130Z,0.50
2019-02-03T20:10:37.213Z,0.50
2019-02-03T20:13:07.043Z,-0.20
2019-02-03T20:15:36.096Z,0.50
2019-02-03T20:18:05.863Z,0.50
2019-02-03T20:20:35.657Z,0.50
2019-02-03T20:23:06.713Z,0.50
2019-02-03T20:25:35.683Z,0.50
2019-02-03T20:28:05.795Z,0.50
2019-02-03T20:30:38.553Z,0.50
2019-02-03T20:33:06.135Z,0.50
2019-02-03T20:35:35.132Z,0.50
2019-02-03T20:38:04.932Z,0.50
2019-02-03T20:40:35.845Z,0.50
2019-02-03T20:43:05.351Z,0.40
2019-02-03T20:45:36.174Z,0.40
2019-02-03T20:48:05.138Z,0.40
2019-02-03T20:50:34.132Z,0.40
2019-02-03T20:53:03.080Z,0.40
2019-02-03T20:55:32.199Z,0.40
2019-02-03T20:58:07.034Z,0.40
2019-02-03T21:00:36.939Z,0.40
2019-02-03T21:03:06.809Z,0.40
2019-02-03T21:05:55.285Z,0.50
2019-02-03T21:08:24.295Z,0.50
2019-02-03T21:10:53.243Z,0.60
2019-02-03T21:13:22.181Z,0.60
2019-02-03T21:15:51.580Z,0.50
2019-02-03T21:18:20.561Z,0.60
2019-02-03T21:20:56.308Z,0.60
2019-02-03T21:23:25.327Z,0.60
2019-02-03T21:25:54.336Z,0.60
2019-02-03T21:28:23.294Z,0.50
2019-02-03T21:30:52.301Z,0.50
2019-02-03T21:33:21.288Z,0.50
2019-02-03T21:35:50.297Z,0.40
2019-02-03T21:38:19.303Z,0.40
2019-02-03T21:40:48.336Z,0.40
2019-02-03T21:43:17.857Z,0.40
2019-02-03T21:45:46.862Z,0.40
2019-02-03T21:48:15.884Z,0.40
2019-02-03T21:50:44.881Z,0.40
2019-02-03T21:53:13.924Z,0.40
2019-02-03T21:55:42.979Z,0.40
2019-02-03T21:58:12.452Z,0.40
2019-02-03T22:00:41.412Z,0.40
2019-02-03T22:03:29.551Z,0.40
2019-02-03T22:05:58.568Z,0.40
2019-02-03T22:08:28.077Z,0.40
2019-02-03T22:10:56.978Z,0.40
2019-02-03T22:13:45.111Z,0.40
2019-02-03T22:16:14.456Z,0.40
2019-02-03T22:18:43.959Z,0.40
2019-02-03T22:21:16.004Z,0.40
2019-02-03T22:23:45.016Z,0.40
2019-02-03T22:26:14.015Z,0.40
2019-02-03T22:28:42.940Z,0.30
2019-02-03T22:31:11.960Z,0.30
2019-02-03T22:33:40.974Z,0.30
2019-02-03T22:36:09.992Z,0.30
2019-02-03T22:38:58.027Z,0.30
2019-02-03T22:41:27.047Z,0.30
2019-02-03T22:43:56.080Z,0.40
2019-02-03T22:46:25.076Z,0.40
2019-02-03T22:48:53.929Z,0.40
2019-02-03T22:51:22.907Z,0.40
2019-02-03T22:53:51.889Z,0.40
2019-02-03T22:56:21.174Z,0.40
2019-02-03T22:58:50.192Z,0.50
2019-02-03T23:01:28.588Z,0.50
2019-02-03T23:04:07.135Z,0.50
2019-02-03T23:06:37.842Z,0.50
2019-02-03T23:09:21.373Z,0.50
2019-02-03T23:11:50.368Z,0.50
2019-02-03T23:14:19.407Z,0.50
2019-02-03T23:16:48.440Z,0.50
2019-02-03T23:19:17.617Z,0.60
2019-02-03T23:21:46.637Z,0.60
2019-02-03T23:24:15.632Z,0.60
2019-02-03T23:26:44.661Z,0.70
2019-02-03T23:29:13.668Z,0.70
2019-02-03T23:31:42.696Z,0.70
2019-02-03T23:34:11.732Z,0.70
2019-02-03T23:36:40.840Z,0.70
2019-02-03T23:39:13.407Z,0.70
2019-02-03T23:41:43.028Z,0.70
2019-02-03T23:44:31.174Z,0.70
2019-02-03T23:47:00.188Z,0.70
2019-02-03T23:49:29.200Z,0.60
2019-02-03T23:51:58.132Z,0.70
2019-02-03T23:54:27.132Z,0.60
2019-02-03T23:56:56.175Z,0.70
2019-02-03T23:59:25.172Z,0.60
